• Join FlightAware (Why Join?)
  • Login
  • US Flag 
09:46PM EDT


 

Airport Tracker/Info


-or-


 

Live Flight TrackerFlight Track Log ✈ AWE3988 ✈ 05-May-2013 ✈ KPHL - KMHT

Flight Track Log - Related Links

Times and Time Zones

All times are in EDT time to prevent confusion due to time zone crossing. See the AWE3988 flight status page for this flight to view local times or setup timezone preferences in your user account.

Time Position Orientation Groundspeed Altitude Reporting Facility
EDT Latitude Longitude Course Direction KTS MPH feet Rate Location/Type
03:02PM 39.8833 -75.2167 37° Northeast 161 185 700  Level Philadelphia TRACON
03:03PM 39.8667 -75.1333 105° East 204 235 3,400 2,040 Climbing Philadelphia TRACON
03:04PM 39.8120 -74.8433 105° East  Level FlightAware Approximate
03:04PM 39.8500 -75.0500 105° East 255 293 5,500  Level Philadelphia TRACON
03:05PM 39.7857 -74.7117 105° East  Level FlightAware Approximate
03:05PM 39.8333 -74.9667 105° East 263 303 8,000  Level Philadelphia TRACON
03:06PM 39.8588 -74.6246 37° Northeast  Level FlightAware Approximate
03:07PM 39.9451 -74.5549 37° Northeast  Level FlightAware Approximate
03:07PM 39.8092 -74.8000 101° East 277 319 11,800  Level New York Center
03:08PM 39.8128 -74.6947 87° East 290 334 13,600 1,620 Climbing New York Center
03:09PM 39.8903 -74.6208 36° Northeast 277 319 15,100 1,500 Climbing New York Center
03:10PM 39.9678 -74.5464 36° Northeast 311 358 16,600 1,380 Climbing New York Center
03:11PM 40.0431 -74.4747 36° Northeast 346 398 17,900 1,320 Climbing New York Center
03:12PM 40.1225 -74.3947 38° Northeast 358 412 19,300 1,380 Climbing New York Center
03:13PM 40.2042 -74.3119 38° Northeast 363 418 20,800 1,380 Climbing New York Center
03:14PM 40.2858 -74.2319 37° Northeast 363 418 22,200 1,260 Climbing New York Center
03:15PM 40.3675 -74.1489 38° Northeast 363 418 23,400 1,080 Climbing New York Center
03:16PM 40.4722 -74.1267 North 350 403 24,400 900 Climbing New York Center
03:17PM 40.5769 -74.1128 North 362 417 25,300 960 Climbing New York Center
03:18PM 40.7564 -74.0894 North 370 426 26,900 660 Climbing Boston Center
03:19PM 40.8525 -74.0756 North 379 436 27,000  Climbing Boston Center
03:20PM 40.9633 -74.0592 North 391 450 27,000  Level Boston Center
03:21PM 41.0781 -74.0428 North 402 463 27,000  Level Boston Center
03:22PM 41.1931 -74.0289 North 409 471 27,000  Level Boston Center
03:23PM 41.3078 -74.0125 North 409 471 27,000  Level Boston Center
03:24PM 41.4228 -73.9958 North 409 471 27,000  Level Boston Center
03:25PM 41.5353 -73.9819 North 409 471 27,000  Level Boston Center
03:26PM 41.6525 -73.9625 North 409 471 27,000  Level Boston Center
03:27PM 41.7653 -73.9431 North 409 471 27,000  Level Boston Center
03:28PM 41.8697 -73.9233 North 399 459 27,000  Level Boston Center
03:29PM 41.9419 -73.8161 48° Northeast 364 419 27,000  Level Boston Center
03:30PM 42.0119 -73.6975 52° Northeast 373 429 27,000 -60 Level Boston Center
03:31PM 42.0822 -73.5703 53° Northeast 395 455 26,900 -600 Descending Boston Center
03:32PM 42.1500 -73.4511 52° Northeast 406 467 25,900 -1,200 Descending Boston Center
03:33PM 42.2197 -73.3317 52° Northeast 412 474 24,500 -1,440 Descending Boston Center
03:34PM 42.2894 -73.2061 53° Northeast 405 466 23,100 -1,440 Descending Boston Center
03:35PM 42.3653 -73.0694 53° Northeast 425 489 21,700 -1,080 Descending Boston Center
03:36PM 42.4325 -72.9436 54° Northeast 431 496 21,000 -360 Descending Boston Center
03:37PM 42.5019 -72.8175 53° Northeast 431 496 21,000 -300 Level Boston Center
03:38PM 42.5606 -72.6881 58° Northeast 424 488 20,400 -1,500 Descending Boston Center
03:39PM 42.6150 -72.5389 64° Northeast 401 461 18,100 -2,160 Descending Boston Center
03:40PM 42.6631 -72.3978 65° Northeast 401 461 16,100 -2,100 Descending Boston Center
03:41PM 42.7086 -72.2678 64° Northeast 395 455 13,900 -2,220 Descending Boston Center
03:42PM 42.7481 -72.1489 66° East 360 414 11,700 -1,860 Descending Boston Center
03:43PM 42.7894 -72.0411 62° Northeast 326 375 10,200 -1,440 Descending Boston Center
03:45PM 42.8833 -71.8833 51° Northeast 267 307 7,600 -1,440 Descending KA90
03:46PM 42.9333 -71.8000 51° Northeast 260 299 6,000 -1,500 Descending KA90
03:47PM 42.9650 -71.7194 62° Northeast 255 293 4,500 -1,500 Descending Boston Center
03:48PM 43.0000 -71.6367 60° Northeast 243 280 3,100 -1,080 Descending Boston Center
03:49PM 43.0286 -71.5625 62° Northeast 229 264 2,400 -600 Descending Boston Center
03:50PM 43.0197 -71.4972 101° East 180 207 1,900 -600 Descending Boston Center
03:51PM 42.9839 -71.4667 148° Southeast 147 169 1,300 -720 Descending Boston Center
03:52PM 42.9503 -71.4444 154° Southeast 142 163 500 -420 Descending Boston Center
03:53PM 42.9169 -71.4222 154° Southeast 142 163 500  Level Boston Center